createdAt,value
2019-05-11T00:00:35.804Z,65.09
2019-05-11T00:01:39.632Z,65.09
2019-05-11T00:02:47.645Z,65.86
2019-05-11T00:03:52.579Z,65.76
2019-05-11T00:05:07.807Z,65.76
2019-05-11T00:07:51.844Z,65.45
2019-05-11T00:08:58.040Z,65.45
2019-05-11T00:10:03.416Z,65.66
2019-05-11T00:11:07.387Z,65.94
2019-05-11T00:12:11.699Z,66.25
2019-05-11T00:13:15.595Z,66.25
2019-05-11T00:14:19.316Z,66.05
2019-05-11T00:15:23.317Z,65.85
2019-05-11T00:16:27.516Z,65.94
2019-05-11T00:17:31.342Z,65.99
2019-05-11T00:18:37.775Z,66.07
2019-05-11T00:19:43.104Z,66.07
2019-05-11T00:20:46.898Z,65.59
2019-05-11T00:21:50.798Z,65.49
2019-05-11T00:22:54.491Z,65.49
2019-05-11T00:23:58.401Z,65.56
2019-05-11T00:25:03.217Z,65.41
2019-05-11T00:26:07.050Z,65.41
2019-05-11T00:27:10.797Z,65.66
2019-05-11T00:28:15.940Z,65.92
2019-05-11T00:29:22.177Z,66.77
2019-05-11T00:30:26.443Z,66.81
2019-05-11T00:31:34.222Z,66.81
2019-05-11T00:32:38.050Z,66.48
2019-05-11T00:33:48.257Z,66.48
2019-05-11T00:36:22.540Z,66.86
2019-05-11T00:37:30.668Z,66.43
2019-05-11T00:40:14.737Z,66.82
2019-05-11T00:41:31.223Z,66.11
2019-05-11T00:44:29.325Z,66.66
2019-05-11T00:45:46.118Z,66.62
2019-05-11T00:46:55.740Z,66.67
2019-05-11T00:48:11.604Z,66.60
2019-05-11T00:49:22.293Z,67.32
2019-05-11T00:50:40.140Z,67.90
2019-05-11T00:51:58.811Z,67.61
2019-05-11T00:53:01.488Z,68.23
2019-05-11T00:54:15.263Z,68.80
2019-05-11T00:55:25.234Z,68.80
2019-05-11T00:56:41.160Z,68.60
2019-05-11T00:57:53.603Z,68.79
2019-05-11T01:00:41.342Z,68.69
2019-05-11T01:03:26.411Z,68.44
2019-05-11T01:05:13.350Z,68.72
2019-05-11T01:06:48.011Z,68.96
2019-05-11T01:07:53.035Z,68.63
2019-05-11T01:11:07.945Z,68.41
2019-05-11T01:12:33.185Z,68.61
2019-05-11T01:24:44.772Z,69.75
2019-05-11T01:25:56.717Z,69.35
2019-05-11T01:27:05.767Z,69.15
2019-05-11T01:28:20.338Z,69.31
2019-05-11T01:29:54.653Z,69.57
2019-05-11T01:34:38.906Z,69.71
2019-05-11T01:35:43.204Z,69.42
2019-05-11T01:36:48.292Z,69.45
2019-05-11T01:37:55.069Z,69.45
2019-05-11T01:38:59.199Z,69.44
2019-05-11T01:40:06.923Z,69.40
2019-05-11T01:41:10.580Z,69.40
2019-05-11T01:42:14.523Z,69.21
2019-05-11T01:43:18.656Z,69.25
2019-05-11T01:44:22.991Z,69.25
2019-05-11T01:45:26.707Z,69.39
2019-05-11T01:46:30.579Z,69.51
2019-05-11T01:47:34.273Z,69.51
2019-05-11T01:48:38.105Z,69.67
2019-05-11T01:49:42.101Z,69.67
2019-05-11T01:50:45.932Z,69.66
2019-05-11T01:51:49.659Z,69.50
2019-05-11T01:52:53.562Z,69.09
2019-05-11T01:53:58.790Z,69.09
2019-05-11T01:55:02.622Z,68.89
2019-05-11T01:56:09.042Z,68.89
2019-05-11T01:57:12.938Z,69.11
2019-05-11T01:58:18.187Z,69.14
2019-05-11T01:59:21.995Z,69.14
2019-05-11T02:02:11.262Z,68.77
2019-05-11T02:03:14.311Z,68.46
2019-05-11T02:04:20.538Z,68.45
2019-05-11T02:05:30.321Z,68.54
2019-05-11T02:06:34.301Z,68.49
2019-05-11T02:07:39.119Z,68.71
2019-05-11T02:08:42.957Z,68.71
2019-05-11T02:09:46.676Z,68.45
2019-05-11T02:10:50.617Z,68.72
2019-05-11T02:11:54.371Z,69.10
2019-05-11T02:12:58.305Z,69.22
2019-05-11T02:14:05.067Z,69.20
2019-05-11T02:15:09.284Z,69.32
2019-05-11T02:16:18.057Z,69.59
2019-05-11T02:17:22.392Z,69.59
2019-05-11T02:18:26.490Z,68.88
2019-05-11T02:19:30.764Z,68.88
2019-05-11T02:20:34.495Z,69.38
2019-05-11T02:21:38.806Z,69.56
2019-05-11T02:22:45.102Z,69.52
2019-05-11T02:23:49.059Z,69.56
2019-05-11T02:24:52.752Z,69.41
2019-05-11T02:25:56.880Z,69.41
2019-05-11T02:27:00.610Z,69.37
2019-05-11T02:28:06.063Z,69.34
2019-05-11T02:29:09.755Z,69.57
2019-05-11T02:30:15.435Z,69.57
2019-05-11T02:31:19.548Z,70.00
2019-05-11T02:32:23.374Z,69.96
2019-05-11T02:33:27.526Z,70.12
2019-05-11T02:34:33.305Z,70.07
2019-05-11T02:35:37.056Z,70.21
2019-05-11T02:36:41.264Z,70.31
2019-05-11T02:37:44.960Z,70.24
2019-05-11T02:38:48.858Z,70.64
2019-05-11T02:39:55.537Z,70.72
2019-05-11T02:40:59.658Z,70.53
2019-05-11T02:42:03.416Z,70.42
2019-05-11T02:43:07.516Z,70.01
2019-05-11T02:44:11.225Z,70.01
2019-05-11T02:45:17.749Z,70.18
2019-05-11T02:46:21.392Z,70.17
2019-05-11T02:47:25.339Z,70.13
2019-05-11T02:48:29.058Z,70.21
2019-05-11T02:49:32.955Z,70.16
2019-05-11T02:50:38.998Z,70.19
2019-05-11T02:51:43.705Z,70.29
2019-05-11T02:52:50.593Z,70.18
2019-05-11T02:53:55.290Z,70.08
2019-05-11T02:55:02.172Z,69.94
2019-05-11T02:56:06.051Z,70.07
2019-05-11T02:57:10.998Z,70.06
2019-05-11T02:58:15.299Z,70.04
2019-05-11T02:59:19.005Z,70.20
2019-05-11T03:00:25.746Z,70.49
2019-05-11T03:01:29.434Z,70.49
2019-05-11T03:02:33.247Z,70.54
2019-05-11T03:03:36.934Z,70.43
2019-05-11T03:04:40.834Z,70.28
2019-05-11T03:05:44.733Z,70.26
2019-05-11T03:06:48.632Z,70.26
2019-05-11T03:07:52.325Z,70.22
2019-05-11T03:08:56.641Z,70.20
2019-05-11T03:10:01.656Z,70.19
2019-05-11T03:11:05.505Z,70.16
2019-05-11T03:12:09.157Z,70.26
2019-05-11T03:13:13.316Z,70.20
2019-05-11T03:14:17.148Z,70.40
2019-05-11T03:15:21.047Z,70.40
2019-05-11T03:16:27.203Z,70.31
2019-05-11T03:17:32.904Z,70.25
2019-05-11T03:18:36.903Z,70.50
2019-05-11T03:19:42.500Z,70.57
2019-05-11T03:20:46.138Z,70.37
2019-05-11T03:21:51.266Z,70.23
2019-05-11T03:22:55.911Z,70.17
2019-05-11T03:23:59.785Z,70.06
2019-05-11T03:25:03.437Z,69.91
2019-05-11T03:26:11.520Z,69.95
2019-05-11T03:27:15.188Z,69.89
2019-05-11T03:28:19.068Z,69.94
2019-05-11T03:29:24.518Z,69.95
2019-05-11T03:30:28.766Z,70.07
2019-05-11T03:31:32.421Z,70.42
2019-05-11T03:32:36.348Z,70.42
2019-05-11T03:33:41.504Z,70.18
2019-05-11T03:34:45.361Z,70.25
2019-05-11T03:35:49.034Z,70.09
2019-05-11T03:36:52.865Z,70.06
2019-05-11T03:38:00.204Z,70.05
2019-05-11T03:39:05.232Z,70.13
2019-05-11T03:40:10.067Z,70.17
2019-05-11T03:41:13.968Z,70.23
2019-05-11T03:42:21.387Z,70.23
2019-05-11T03:43:27.872Z,70.30
2019-05-11T03:44:31.785Z,70.17
2019-05-11T03:45:35.691Z,70.10
2019-05-11T03:46:39.408Z,69.95
2019-05-11T03:47:43.313Z,70.02
2019-05-11T03:48:47.044Z,70.02
2019-05-11T03:49:50.970Z,69.67
2019-05-11T03:50:54.683Z,69.70
2019-05-11T03:51:58.563Z,70.77
2019-05-11T03:53:02.264Z,71.82
2019-05-11T03:54:06.252Z,73.28
2019-05-11T03:55:10.212Z,74.54
2019-05-11T03:56:14.124Z,74.06
2019-05-11T03:57:17.885Z,73.71
2019-05-11T03:58:25.772Z,71.93
2019-05-11T03:59:27.279Z,71.93
2019-05-11T04:00:31.218Z,71.48
2019-05-11T04:01:34.966Z,70.34
2019-05-11T04:02:38.874Z,70.34
2019-05-11T04:03:42.508Z,69.57
2019-05-11T04:04:46.343Z,70.49
2019-05-11T04:05:50.065Z,70.55
2019-05-11T04:06:53.925Z,71.56
2019-05-11T04:08:00.637Z,71.74
2019-05-11T04:09:06.231Z,71.99
2019-05-11T04:10:12.062Z,73.33
2019-05-11T04:11:15.893Z,72.74
2019-05-11T04:12:34.120Z,72.94
2019-05-11T04:13:25.226Z,73.31
2019-05-11T04:14:28.952Z,72.95
2019-05-11T04:15:38.980Z,73.08
2019-05-11T04:16:42.980Z,73.73
2019-05-11T04:17:48.324Z,73.67
2019-05-11T04:18:52.356Z,73.76
2019-05-11T04:19:56.520Z,73.92
2019-05-11T04:21:01.925Z,74.16
2019-05-11T04:22:06.423Z,73.99
2019-05-11T04:23:10.366Z,74.45
2019-05-11T04:24:16.046Z,74.71
2019-05-11T04:25:21.323Z,74.61
2019-05-11T04:26:25.110Z,74.47
2019-05-11T04:27:29.283Z,74.16
2019-05-11T04:28:34.479Z,73.67
2019-05-11T04:29:57.049Z,73.42
2019-05-11T04:31:00.904Z,73.01
2019-05-11T04:32:07.841Z,72.29
2019-05-11T04:33:11.755Z,73.11
2019-05-11T04:34:15.434Z,74.59
2019-05-11T04:35:19.247Z,75.45
2019-05-11T04:36:23.337Z,75.82
2019-05-11T04:37:27.177Z,75.70
2019-05-11T04:38:30.867Z,75.86
2019-05-11T04:39:34.764Z,76.32
2019-05-11T04:40:38.512Z,75.75
2019-05-11T04:41:42.887Z,75.95
2019-05-11T04:42:55.035Z,76.09
2019-05-11T04:43:53.734Z,76.14
2019-05-11T04:44:57.381Z,76.23
2019-05-11T04:46:01.202Z,75.97
2019-05-11T04:47:04.882Z,75.49
2019-05-11T04:48:08.681Z,75.56
2019-05-11T04:49:12.313Z,75.45
2019-05-11T04:50:16.238Z,74.92
2019-05-11T04:51:19.950Z,74.70
2019-05-11T04:52:23.797Z,74.36
2019-05-11T04:53:27.423Z,73.80
2019-05-11T04:54:31.251Z,74.13
2019-05-11T04:55:35.250Z,74.36
2019-05-11T04:56:39.142Z,74.74
2019-05-11T04:57:42.843Z,74.75
2019-05-11T04:58:46.638Z,74.53
2019-05-11T04:59:50.318Z,74.12
2019-05-11T05:00:54.126Z,74.26
2019-05-11T05:01:57.767Z,73.89
2019-05-11T05:03:01.702Z,74.43
2019-05-11T05:04:13.977Z,74.94
2019-05-11T05:05:10.901Z,75.10
2019-05-11T05:06:24.121Z,75.46
2019-05-11T05:07:20.484Z,74.95
2019-05-11T05:08:26.609Z,74.98
2019-05-11T05:09:36.171Z,75.04
2019-05-11T05:10:37.642Z,74.56
2019-05-11T05:11:41.813Z,74.99
2019-05-11T05:12:50.379Z,75.58
2019-05-11T05:13:53.517Z,75.50
2019-05-11T05:14:56.462Z,75.25
2019-05-11T05:16:00.287Z,75.72
2019-05-11T05:17:04.055Z,75.20
2019-05-11T05:18:07.898Z,75.22
2019-05-11T05:19:11.553Z,75.77
2019-05-11T05:20:16.076Z,76.07
2019-05-11T05:21:19.710Z,75.92
2019-05-11T05:22:23.546Z,76.00
2019-05-11T05:23:27.185Z,76.03
2019-05-11T05:24:31.132Z,76.22
2019-05-11T05:25:34.761Z,75.43
2019-05-11T05:26:38.706Z,75.21
2019-05-11T05:27:42.390Z,75.79
2019-05-11T05:28:46.311Z,75.74
2019-05-11T05:29:49.955Z,76.66
2019-05-11T05:30:53.757Z,75.48
2019-05-11T05:31:57.306Z,74.83
2019-05-11T05:33:01.596Z,74.39
2019-05-11T05:34:05.329Z,74.36
2019-05-11T05:35:09.953Z,74.44
2019-05-11T05:36:13.594Z,73.99
2019-05-11T05:37:17.417Z,74.04
2019-05-11T05:38:21.115Z,73.81
2019-05-11T05:39:24.929Z,74.01
2019-05-11T05:40:28.877Z,74.55
2019-05-11T05:41:32.709Z,73.85
2019-05-11T05:42:36.424Z,73.37
2019-05-11T05:43:40.263Z,73.28
2019-05-11T05:44:43.898Z,72.88
2019-05-11T05:45:47.817Z,72.50
2019-05-11T05:46:51.475Z,72.50
2019-05-11T05:47:55.313Z,71.79
2019-05-11T05:48:59.006Z,71.91
2019-05-11T05:50:02.977Z,72.31
2019-05-11T05:51:06.634Z,71.69
2019-05-11T05:52:10.695Z,71.37
2019-05-11T05:53:14.536Z,70.81
2019-05-11T05:54:18.387Z,70.95
2019-05-11T05:55:22.021Z,71.31
2019-05-11T05:56:25.887Z,71.28
2019-05-11T05:57:29.559Z,71.28
2019-05-11T05:58:34.877Z,71.18
2019-05-11T05:59:38.644Z,71.16
2019-05-11T06:00:42.538Z,71.08
2019-05-11T06:01:46.177Z,71.08
2019-05-11T06:02:49.994Z,70.19
2019-05-11T06:03:53.938Z,70.19
2019-05-11T06:04:58.234Z,70.03
2019-05-11T06:06:01.928Z,69.60
2019-05-11T06:07:05.792Z,69.14
2019-05-11T06:08:09.517Z,68.34
2019-05-11T06:09:13.351Z,67.85
2019-05-11T06:10:17.454Z,68.86
2019-05-11T06:11:21.349Z,69.26
2019-05-11T06:12:25.103Z,69.26
2019-05-11T06:13:43.950Z,67.21
2019-05-11T06:14:34.784Z,66.49
2019-05-11T06:15:38.600Z,66.49
2019-05-11T06:16:42.242Z,66.29
2019-05-11T06:17:46.137Z,66.24
2019-05-11T06:18:49.830Z,65.77
2019-05-11T06:19:53.636Z,65.27
2019-05-11T06:20:57.698Z,64.73
2019-05-11T06:22:01.545Z,64.26
2019-05-11T06:23:05.177Z,63.27
2019-05-11T06:24:09.179Z,63.13
2019-05-11T06:25:13.127Z,63.42
2019-05-11T06:26:17.310Z,63.25
2019-05-11T06:27:20.872Z,63.51
2019-05-11T06:28:24.829Z,63.16
2019-05-11T06:29:28.457Z,62.79
2019-05-11T06:30:32.309Z,62.86
2019-05-11T06:31:35.978Z,62.75
2019-05-11T06:32:39.794Z,61.64
2019-05-11T06:33:43.836Z,60.62
2019-05-11T06:34:47.669Z,60.54
2019-05-11T06:35:51.323Z,60.55
2019-05-11T06:36:55.061Z,60.77
2019-05-11T06:37:58.708Z,60.00
2019-05-11T06:39:02.550Z,59.60
2019-05-11T06:40:07.993Z,59.05
2019-05-11T06:41:12.300Z,58.27
2019-05-11T06:42:15.942Z,58.44
2019-05-11T06:43:19.801Z,58.90
2019-05-11T06:44:23.467Z,58.56
2019-05-11T06:45:27.286Z,58.43
2019-05-11T06:46:34.694Z,57.82
2019-05-11T06:47:36.619Z,58.36
2019-05-11T06:48:40.257Z,58.36
2019-05-11T06:49:44.134Z,56.93
2019-05-11T06:50:47.792Z,56.47
2019-05-11T06:51:51.610Z,55.69
2019-05-11T06:52:55.240Z,55.63
2019-05-11T06:53:59.070Z,55.41
2019-05-11T06:55:02.738Z,55.40
2019-05-11T06:56:09.152Z,54.75
2019-05-11T06:57:12.413Z,55.12
2019-05-11T06:58:16.230Z,54.37
2019-05-11T06:59:19.858Z,54.24
2019-05-11T07:00:23.797Z,54.74
2019-05-11T07:01:27.489Z,54.42
2019-05-11T07:02:31.607Z,54.42
2019-05-11T07:03:35.268Z,53.56
2019-05-11T07:04:39.144Z,52.96
2019-05-11T07:05:42.812Z,52.67
2019-05-11T07:06:47.081Z,53.13
2019-05-11T07:07:50.772Z,53.56
2019-05-11T07:08:54.614Z,52.19
2019-05-11T07:09:58.254Z,52.25
2019-05-11T07:11:02.145Z,51.60
2019-05-11T07:12:05.845Z,51.88
2019-05-11T07:13:10.235Z,51.96
2019-05-11T07:14:20.509Z,51.65
2019-05-11T07:15:19.494Z,50.02
2019-05-11T07:16:23.315Z,49.00
2019-05-11T07:17:27.131Z,48.40
2019-05-11T07:18:31.098Z,48.17
2019-05-11T07:19:34.985Z,47.82
2019-05-11T07:20:50.181Z,48.35
2019-05-11T07:21:45.685Z,48.09
2019-05-11T07:22:49.328Z,48.04
2019-05-11T07:23:53.071Z,47.91
2019-05-11T07:24:57.148Z,47.99
2019-05-11T07:26:00.904Z,47.79
2019-05-11T07:27:04.674Z,46.75
2019-05-11T07:28:08.512Z,46.50
2019-05-11T07:29:12.221Z,46.43
2019-05-11T07:30:16.172Z,46.36
2019-05-11T07:31:19.812Z,46.28
2019-05-11T07:32:26.074Z,46.56
2019-05-11T07:33:29.140Z,46.89
2019-05-11T07:34:32.956Z,45.70
2019-05-11T07:35:38.515Z,45.21
2019-05-11T07:36:42.168Z,45.84
2019-05-11T07:37:47.888Z,45.35
2019-05-11T07:38:51.404Z,45.23
2019-05-11T07:39:55.051Z,45.29
2019-05-11T07:40:58.865Z,45.33
2019-05-11T07:42:02.490Z,45.32
2019-05-11T07:43:09.655Z,44.63
2019-05-11T07:44:11.853Z,44.13
2019-05-11T07:45:18.067Z,45.11
2019-05-11T07:46:21.548Z,43.64
2019-05-11T07:47:27.725Z,43.42
2019-05-11T07:48:31.087Z,43.55
2019-05-11T07:49:34.981Z,42.94
2019-05-11T07:50:38.877Z,43.08
2019-05-11T07:51:42.877Z,42.70
2019-05-11T07:52:48.293Z,41.91
2019-05-11T07:53:52.374Z,42.72
2019-05-11T07:54:58.027Z,41.73
2019-05-11T07:56:01.642Z,41.28
2019-05-11T07:57:07.755Z,40.50
2019-05-11T07:58:10.950Z,40.40
2019-05-11T07:59:14.672Z,39.53
2019-05-11T08:00:18.840Z,40.05
2019-05-11T08:01:22.448Z,39.49
2019-05-11T08:02:29.273Z,38.96
2019-05-11T08:03:31.694Z,38.73
2019-05-11T08:04:37.879Z,39.19
2019-05-11T08:05:41.663Z,38.63
2019-05-11T08:06:47.762Z,37.91
2019-05-11T08:07:50.854Z,37.72
2019-05-11T08:08:58.593Z,37.24
2019-05-11T08:10:02.483Z,36.16
2019-05-11T08:11:08.204Z,34.83
2019-05-11T08:12:11.995Z,34.39
2019-05-11T08:13:17.836Z,32.88
2019-05-11T08:14:21.672Z,34.28
2019-05-11T08:15:28.358Z,34.39
2019-05-11T08:16:32.322Z,33.45
2019-05-11T08:17:38.119Z,32.88
2019-05-11T08:18:41.564Z,31.24
2019-05-11T08:19:47.535Z,32.38
2019-05-11T08:20:50.845Z,32.30
2019-05-11T08:21:54.685Z,31.01
2019-05-11T08:22:58.818Z,30.28
2019-05-11T08:24:02.732Z,30.86
2019-05-11T08:25:09.746Z,32.03
2019-05-11T08:26:13.603Z,30.74
2019-05-11T08:27:18.672Z,30.05
2019-05-11T08:28:22.775Z,30.63
2019-05-11T08:29:27.833Z,31.17
2019-05-11T08:30:32.286Z,30.71
2019-05-11T08:31:38.259Z,30.23
2019-05-11T08:32:41.460Z,29.87
2019-05-11T08:33:45.167Z,29.47
2019-05-11T08:34:49.237Z,30.09
2019-05-11T08:35:52.823Z,27.46
2019-05-11T08:36:58.456Z,28.98
2019-05-11T08:38:02.035Z,29.16
2019-05-11T08:39:07.997Z,28.36
2019-05-11T08:40:12.367Z,29.37
2019-05-11T08:41:18.361Z,28.83
2019-05-11T08:42:21.619Z,28.96
2019-05-11T08:43:25.433Z,28.15
2019-05-11T08:44:29.430Z,28.07
2019-05-11T08:45:33.271Z,27.26
2019-05-11T08:46:38.545Z,26.64
2019-05-11T08:47:42.540Z,26.30
2019-05-11T08:48:47.875Z,26.85
2019-05-11T08:49:51.978Z,26.88
2019-05-11T08:50:58.023Z,27.01
2019-05-11T08:52:01.091Z,27.92
2019-05-11T08:53:05.129Z,28.17
2019-05-11T08:54:09.193Z,27.58
2019-05-11T08:55:13.507Z,26.80
2019-05-11T08:56:18.936Z,26.70
2019-05-11T08:57:22.745Z,25.92
2019-05-11T08:58:27.769Z,26.17
2019-05-11T08:59:31.528Z,26.95
2019-05-11T09:00:35.460Z,26.64
2019-05-11T09:01:39.533Z,26.10
2019-05-11T09:02:46.853Z,26.02
2019-05-11T09:03:49.509Z,25.85
2019-05-11T09:04:53.373Z,27.11
2019-05-11T09:05:57.906Z,25.85
2019-05-11T09:07:01.833Z,24.83
2019-05-11T09:08:08.085Z,25.33
2019-05-11T09:09:13.245Z,25.80
2019-05-11T09:10:18.536Z,25.65
2019-05-11T09:11:22.299Z,25.71
2019-05-11T09:12:25.964Z,25.20
2019-05-11T09:13:29.814Z,26.00
2019-05-11T09:14:33.488Z,24.50
2019-05-11T09:15:40.651Z,24.62
2019-05-11T09:16:42.667Z,24.47
2019-05-11T09:17:48.587Z,25.19
2019-05-11T09:18:51.905Z,26.34
2019-05-11T09:19:58.136Z,25.98
2019-05-11T09:21:01.502Z,24.45
2019-05-11T09:22:05.322Z,24.10
2019-05-11T09:23:08.959Z,25.27
2019-05-11T09:24:12.889Z,25.43
2019-05-11T09:25:18.317Z,25.16
2019-05-11T09:26:22.375Z,24.63
2019-05-11T09:27:26.007Z,25.32
2019-05-11T09:28:32.271Z,26.34
2019-05-11T09:29:35.834Z,27.16
2019-05-11T09:30:39.758Z,27.76
2019-05-11T09:31:43.397Z,26.56
2019-05-11T09:32:47.891Z,25.28
2019-05-11T09:33:51.658Z,25.84
2019-05-11T09:34:57.807Z,25.47
2019-05-11T09:36:00.834Z,25.75
2019-05-11T09:37:04.797Z,26.67
2019-05-11T09:38:08.417Z,25.77
2019-05-11T09:39:12.272Z,26.11
2019-05-11T09:40:19.030Z,26.63
2019-05-11T09:41:22.920Z,26.39
2019-05-11T09:42:28.542Z,26.56
2019-05-11T09:43:32.167Z,27.89
2019-05-11T09:44:37.840Z,26.46
2019-05-11T09:45:48.181Z,27.33
2019-05-11T09:46:47.812Z,27.54
2019-05-11T09:47:51.825Z,27.77
2019-05-11T09:48:55.473Z,28.32
2019-05-11T09:49:59.332Z,26.78
2019-05-11T09:51:03.036Z,27.06
2019-05-11T09:52:07.867Z,27.76
2019-05-11T09:53:11.696Z,27.99
2019-05-11T09:54:18.097Z,28.14
2019-05-11T09:55:21.257Z,27.86
2019-05-11T09:56:25.188Z,27.69
2019-05-11T09:57:28.977Z,28.63
2019-05-11T09:58:32.830Z,28.32
2019-05-11T09:59:38.568Z,30.27
2019-05-11T10:00:42.524Z,28.39
2019-05-11T10:01:48.330Z,29.05
2019-05-11T10:02:51.731Z,29.29
2019-05-11T10:03:55.425Z,28.74
2019-05-11T10:04:59.238Z,27.78
2019-05-11T10:06:03.260Z,26.95
2019-05-11T10:07:09.002Z,27.22
2019-05-11T10:08:12.495Z,25.80
2019-05-11T10:09:18.476Z,26.80
2019-05-11T10:10:23.381Z,28.06
2019-05-11T10:11:28.253Z,27.58
2019-05-11T10:12:32.129Z,28.30
2019-05-11T10:13:38.273Z,29.15
2019-05-11T10:14:43.168Z,27.29
2019-05-11T10:16:00.979Z,28.94
2019-05-11T10:16:53.734Z,27.23
2019-05-11T10:18:00.281Z,27.84
2019-05-11T10:19:05.296Z,25.79
2019-05-11T10:20:09.742Z,26.97
2019-05-11T10:21:13.713Z,28.78
2019-05-11T10:22:18.526Z,25.35
2019-05-11T10:23:22.469Z,27.60
2019-05-11T10:24:28.291Z,26.80
2019-05-11T10:25:32.153Z,27.10
2019-05-11T10:26:38.461Z,27.75
2019-05-11T10:27:43.659Z,26.84
2019-05-11T10:28:48.263Z,27.78
2019-05-11T10:29:54.321Z,26.55
2019-05-11T10:31:00.201Z,25.92
2019-05-11T10:32:03.832Z,25.77
2019-05-11T10:33:09.397Z,26.62
2019-05-11T10:34:14.113Z,26.64
2019-05-11T10:35:18.831Z,25.89
2019-05-11T10:36:22.627Z,26.06
2019-05-11T10:37:28.243Z,26.48
2019-05-11T10:38:31.813Z,28.22
2019-05-11T10:39:35.654Z,26.47
2019-05-11T10:40:39.416Z,27.78
2019-05-11T10:41:43.639Z,25.96
2019-05-11T10:42:48.328Z,27.21
2019-05-11T10:43:52.408Z,26.67
2019-05-11T10:44:58.163Z,25.31
2019-05-11T10:46:15.976Z,26.06
2019-05-11T10:47:08.186Z,26.12
2019-05-11T10:48:12.332Z,26.17
2019-05-11T10:49:18.300Z,26.38
2019-05-11T10:50:21.564Z,26.50
2019-05-11T10:51:25.197Z,26.20
2019-05-11T10:52:29.426Z,26.26
2019-05-11T10:53:33.425Z,26.62
2019-05-11T10:54:39.711Z,25.82
2019-05-11T10:55:42.802Z,26.28
2019-05-11T10:56:48.147Z,26.98
2019-05-11T10:57:51.961Z,26.02
2019-05-11T10:58:55.801Z,25.25
2019-05-11T10:59:59.512Z,27.96
2019-05-11T11:01:03.430Z,25.82
2019-05-11T11:02:08.042Z,25.63
2019-05-11T11:03:12.104Z,26.67
2019-05-11T11:04:18.173Z,25.39
2019-05-11T11:05:21.358Z,25.11
2019-05-11T11:06:28.140Z,26.09
2019-05-11T11:07:33.192Z,25.25
2019-05-11T11:08:38.313Z,25.24
2019-05-11T11:09:42.785Z,24.58
2019-05-11T11:10:48.347Z,25.00
2019-05-11T11:11:51.980Z,24.21
2019-05-11T11:12:57.761Z,25.38
2019-05-11T11:14:03.051Z,24.25
2019-05-11T11:15:08.390Z,25.06
2019-05-11T11:16:15.304Z,25.60
2019-05-11T11:17:19.284Z,24.98
2019-05-11T11:18:24.398Z,24.86
2019-05-11T11:19:29.454Z,24.13
2019-05-11T11:20:33.262Z,25.37
2019-05-11T11:21:38.385Z,25.72
2019-05-11T11:22:44.238Z,26.40
2019-05-11T11:23:48.314Z,26.23
2019-05-11T11:24:52.227Z,25.57
2019-05-11T11:25:55.885Z,25.93
2019-05-11T11:26:59.715Z,26.67
2019-05-11T11:28:03.450Z,25.58
2019-05-11T11:29:08.524Z,25.22
2019-05-11T11:30:14.764Z,25.92
2019-05-11T11:31:19.002Z,24.28
2019-05-11T11:32:22.769Z,23.12
2019-05-11T11:33:27.684Z,23.01
2019-05-11T11:34:31.582Z,23.60
2019-05-11T11:35:35.490Z,24.58
2019-05-11T11:36:39.182Z,23.70
2019-05-11T11:37:43.687Z,25.05
2019-05-11T11:38:48.061Z,23.43
2019-05-11T11:39:52.050Z,24.16
2019-05-11T11:40:55.723Z,26.05
2019-05-11T11:41:59.567Z,24.58
2019-05-11T11:43:04.718Z,22.99
2019-05-11T11:44:08.631Z,22.99
2019-05-11T11:45:12.641Z,22.97
2019-05-11T11:46:18.680Z,22.55
2019-05-11T11:47:21.941Z,23.90
2019-05-11T11:48:27.846Z,23.30
2019-05-11T11:49:31.281Z,22.57
2019-05-11T11:50:37.557Z,23.62
2019-05-11T11:51:40.534Z,23.27
2019-05-11T11:52:45.131Z,22.13
2019-05-11T11:53:49.043Z,22.98
2019-05-11T11:54:52.883Z,23.41
2019-05-11T11:55:58.622Z,23.99
2019-05-11T11:57:02.197Z,22.91
2019-05-11T11:58:08.079Z,23.94
2019-05-11T11:59:11.483Z,22.62
2019-05-11T12:00:15.343Z,22.83
2019-05-11T12:01:22.117Z,23.40
2019-05-11T12:02:28.452Z,22.87
2019-05-11T12:03:37.905Z,22.07
2019-05-11T12:04:42.835Z,23.48
2019-05-11T12:05:47.767Z,22.35
2019-05-11T12:06:51.637Z,22.28
2019-05-11T12:07:57.829Z,22.79
2019-05-11T12:09:01.009Z,22.40
2019-05-11T12:10:07.884Z,24.30
2019-05-11T12:11:11.527Z,22.76
2019-05-11T12:12:15.506Z,23.20
2019-05-11T12:13:19.141Z,23.41
2019-05-11T12:14:22.980Z,23.80
2019-05-11T12:15:28.312Z,24.50
2019-05-11T12:16:32.334Z,23.07
2019-05-11T12:17:37.686Z,22.89
2019-05-11T12:18:41.715Z,24.04
2019-05-11T12:19:47.300Z,24.22
2019-05-11T12:20:51.006Z,23.78
2019-05-11T12:21:58.216Z,23.84
2019-05-11T12:23:02.216Z,24.61
2019-05-11T12:24:08.131Z,24.16
2019-05-11T12:25:11.971Z,24.76
2019-05-11T12:26:17.617Z,24.95
2019-05-11T12:27:21.152Z,24.51
2019-05-11T12:28:24.828Z,25.16
2019-05-11T12:29:30.845Z,24.97
2019-05-11T12:30:34.547Z,24.62
2019-05-11T12:31:38.355Z,24.71
2019-05-11T12:32:43.628Z,24.84
2019-05-11T12:33:48.610Z,25.43
2019-05-11T12:34:54.629Z,24.14
2019-05-11T12:35:58.768Z,25.30
2019-05-11T12:37:02.463Z,24.02
2019-05-11T12:38:08.563Z,25.59
2019-05-11T12:39:13.704Z,24.84
2019-05-11T12:40:18.220Z,23.78
2019-05-11T12:41:21.877Z,24.58
2019-05-11T12:42:28.275Z,26.25
2019-05-11T12:43:31.383Z,26.34
2019-05-11T12:44:35.186Z,26.11
2019-05-11T12:45:38.840Z,25.73
2019-05-11T12:46:42.649Z,25.17
2019-05-11T12:47:48.033Z,25.94
2019-05-11T12:48:52.007Z,24.88
2019-05-11T12:49:55.671Z,24.56
2019-05-11T12:50:59.546Z,24.34
2019-05-11T12:52:03.247Z,23.47
2019-05-11T12:53:08.013Z,24.23
2019-05-11T12:54:11.849Z,23.10
2019-05-11T12:55:17.910Z,23.03
2019-05-11T12:56:22.231Z,23.02
2019-05-11T12:57:28.178Z,24.58
2019-05-11T12:58:31.519Z,23.19
2019-05-11T12:59:35.329Z,24.13
2019-05-11T13:00:39.340Z,22.96
2019-05-11T13:01:43.647Z,23.61
2019-05-11T13:02:48.391Z,22.47
2019-05-11T13:03:52.578Z,22.57
2019-05-11T13:04:58.501Z,23.55
2019-05-11T13:06:02.072Z,22.90
2019-05-11T13:07:05.723Z,23.05
2019-05-11T13:08:09.549Z,22.39
2019-05-11T13:09:13.175Z,22.71
2019-05-11T13:10:17.842Z,22.43
2019-05-11T13:11:21.681Z,23.19
2019-05-11T13:12:27.794Z,25.26
2019-05-11T13:13:30.867Z,23.63
2019-05-11T13:14:34.680Z,24.27
2019-05-11T13:15:38.814Z,23.74
2019-05-11T13:16:43.199Z,22.93
2019-05-11T13:17:48.968Z,23.45
2019-05-11T13:18:52.887Z,23.47
2019-05-11T13:19:58.641Z,22.56
2019-05-11T13:21:02.110Z,25.55
2019-05-11T13:22:07.768Z,23.68
2019-05-11T13:23:11.788Z,23.73
2019-05-11T13:24:15.541Z,23.50
2019-05-11T13:25:19.660Z,23.67
2019-05-11T13:26:23.303Z,23.06
2019-05-11T13:27:28.353Z,23.32
2019-05-11T13:28:33.325Z,23.16
2019-05-11T13:29:37.938Z,24.29
2019-05-11T13:30:41.670Z,24.26
2019-05-11T13:31:45.470Z,25.00
2019-05-11T13:32:49.342Z,23.98
2019-05-11T13:33:53.330Z,23.58
2019-05-11T13:35:22.600Z,23.63
2019-05-11T13:36:28.641Z,24.01
2019-05-11T13:37:32.452Z,24.20
2019-05-11T13:38:38.631Z,23.29
2019-05-11T13:39:41.762Z,23.67
2019-05-11T13:40:45.569Z,23.84
2019-05-11T13:41:49.243Z,22.40
2019-05-11T13:42:53.318Z,22.72
2019-05-11T13:43:58.681Z,23.23
2019-05-11T13:45:02.511Z,23.45
2019-05-11T13:46:08.582Z,23.13
2019-05-11T13:47:12.005Z,21.89
2019-05-11T13:48:17.526Z,23.09
2019-05-11T13:49:21.223Z,22.94
2019-05-11T13:50:26.362Z,23.06
2019-05-11T13:51:30.182Z,22.31
2019-05-11T13:52:35.087Z,22.57
2019-05-11T13:53:39.038Z,22.32
2019-05-11T13:54:42.677Z,22.66
2019-05-11T13:55:48.133Z,23.08
2019-05-11T13:56:52.027Z,23.57
2019-05-11T13:57:57.839Z,23.10
2019-05-11T13:59:10.434Z,22.60
2019-05-11T14:00:14.101Z,22.18
2019-05-11T14:01:18.496Z,23.63
2019-05-11T14:02:22.574Z,22.96
2019-05-11T14:03:27.675Z,23.53
2019-05-11T14:04:31.725Z,23.62
2019-05-11T14:05:37.892Z,22.46
2019-05-11T14:06:41.786Z,22.19
2019-05-11T14:07:45.423Z,22.75
2019-05-11T14:08:53.560Z,22.23
2019-05-11T14:09:58.878Z,22.65
2019-05-11T14:11:02.814Z,23.29
2019-05-11T14:12:07.735Z,22.45
2019-05-11T14:13:12.389Z,22.12
2019-05-11T14:14:18.190Z,21.72
2019-05-11T14:15:23.099Z,21.99
2019-05-11T14:16:27.587Z,22.68
2019-05-11T14:17:32.020Z,22.06
2019-05-11T14:18:35.798Z,21.04
2019-05-11T14:19:39.829Z,21.80
2019-05-11T14:20:43.609Z,21.25
2019-05-11T14:21:49.044Z,21.39
2019-05-11T14:22:52.759Z,21.19
2019-05-11T14:23:58.809Z,21.22